Flight Track Log - Related Links

Times and Time Zones

All times are in EDT time to prevent confusion due to time zone crossing. See the UAL464 flight status page for this flight to view local times or setup timezone preferences in your user account.

Time Position Orientation Groundspeed Altitude Reporting Facility
EDT Latitude Longitude Course Direction KTS MPH feet Rate Location/Type
Sun 16:54:06 45.5831 -122.5653 90° East 156 180 800  Level Seattle Center
Sun 16:55:37 45.5617 -122.4383 103° East 259 298 3,200 2,030 Climbing Seattle Center
Sun 16:56:19 45.5514 -122.3700 102° East 242 278 5,300 2,738 Climbing Seattle Center
Sun 16:57:00 45.6946 -121.9760 66° East  Level FlightAware
Sun 16:57:20 45.5717 -122.2628 75° East 292 336 7,900  Level Seattle Center
Sun 16:58:00 45.7334 -121.8130 90° East  Level FlightAware
Sun 16:58:21 45.6222 -122.1508 57° Northeast 332 382 10,300  Level Seattle Center
Sun 16:59:00 45.7334 -121.6384 90° East  Level FlightAware
Sun 16:59:21 45.6769 -122.0197 59° Northeast 385 443 11,700  Level Seattle Center
Sun 17:00:22 45.7331 -121.8864 59° Northeast 405 466 14,100 2,361 Climbing Seattle Center
Sun 17:01:23 45.7464 -121.7303 83° East 395 455 16,500 1,820 Climbing Seattle Center
Sun 17:02:24 45.7450 -121.5628 91° East 418 481 17,800 1,488 Climbing Seattle Center
Sun 17:03:24 45.7436 -121.3906 91° East 432 497 19,500 1,537 Climbing Seattle Center
Sun 17:04:25 45.7422 -121.2122 91° East 444 511 20,900 1,377 Climbing Seattle Center
Sun 17:05:26 45.7411 -121.0308 90° East 452 520 22,300 1,426 Climbing Seattle Center
Sun 17:06:27 45.7375 -120.8061 91° East 466 536 23,800 1,438 Climbing Seattle Center
Sun 17:07:27 45.7344 -120.6142 91° East 476 548 25,200 1,240 Climbing Seattle Center
Sun 17:08:28 45.7317 -120.4217 91° East 480 552 26,300 1,033 Climbing Seattle Center
Sun 17:09:29 45.7275 -120.2250 92° East 488 562 27,300 934 Climbing Seattle Center
Sun 17:10:30 45.7250 -120.0256 91° East 495 570 28,200 984 Climbing Seattle Center
Sun 17:11:31 45.7206 -119.8231 92° East 502 578 29,300 1,140 Climbing Seattle Center
Sun 17:12:31 45.7153 -119.6197 92° East 508 585 30,500 1,240 Climbing Seattle Center
Sun 17:13:32 45.7108 -119.4189 92° East 505 581 31,800 1,279 Climbing Seattle Center
Sun 17:14:33 45.7061 -119.2203 92° East 500 575 33,100 1,033 Climbing Seattle Center
Sun 17:15:34 45.7028 -119.0253 91° East 493 567 33,900 934 Climbing Seattle Center
Sun 17:16:35 45.7258 -118.8308 80° East 496 571 35,000 545 Climbing Seattle Center
Sun 17:17:35 45.7422 -118.6347 83° East 498 573 35,000 -50 Level Seattle Center
Sun 17:18:36 45.7483 -118.4422 87° East 500 575 34,900 -49 Descending Seattle Center
Sun 17:19:37 45.7547 -118.2456 87° East 498 573 34,900  Level Seattle Center
Sun 17:20:38 45.7592 -118.0494 88° East 496 571 34,900  Level Seattle Center
Sun 17:21:39 45.7653 -117.8558 87° East 492 566 34,900 49 Level Seattle Center
Sun 17:22:40 45.7711 -117.6603 87° East 494 568 35,000  Climbing Seattle Center
Sun 17:23:40 45.7769 -117.4233 88° East 496 571 34,900  Descending Seattle Center
Sun 17:24:41 45.7811 -117.2275 88° East 495 570 35,000  Climbing Seattle Center
Sun 17:25:42 45.7853 -117.0325 88° East 493 567 34,900 -49 Descending Seattle Center
Sun 17:26:43 45.7889 -116.8356 88° East 495 570 34,900  Level Seattle Center
Sun 17:27:44 45.7922 -116.6417 89° East 492 566 34,900  Level Seattle Center
Sun 17:28:44 45.7961 -116.4442 88° East 497 572 34,900  Level Seattle Center
Sun 17:29:45 45.7983 -116.2492 89° East 494 568 34,900  Level Seattle Center
Sun 17:30:46 45.8017 -116.0536 89° East 495 570 34,900  Level Seattle Center
Sun 17:31:47 45.8033 -115.8592 89° East 492 566 34,900  Level Seattle Center
Sun 17:32:47 45.8050 -115.6622 89° East 495 570 34,900 50 Level Seattle Center
Sun 17:33:48 45.8075 -115.4514 89° East 492 566 35,000 49 Climbing Seattle Center
Sun 17:34:49 45.8097 -115.2689 89° East 485 558 35,000  Level Seattle Center
Sun 17:36:00 45.8111 -115.0222 89° East 488 562 35,000  Level Salt Center
Sun 17:37:02 45.8122 -114.8364 89° East 487 560 35,000  Level Salt Center
Sun 17:38:03 45.8108 -114.6147 90° East 493 567 35,000  Level Salt Center
Sun 17:39:05 45.8106 -114.4294 90° East 488 562 35,000 -48 Level Salt Center
Sun 17:40:07 45.8100 -114.2322 90° East 487 560 34,900 -49 Descending Salt Center
Sun 17:41:08 45.8100 -114.0381 90° East 488 562 34,900  Level Salt Center
Sun 17:42:10 45.8083 -113.8453 91° East 487 560 34,900 48 Level Salt Center
Sun 17:43:12 45.8067 -113.6244 91° East 488 562 35,000 49 Climbing Salt Center
Sun 17:44:13 45.8014 -113.4300 92° East 487 560 35,000  Level Salt Center
Sun 17:45:15 45.8000 -113.2342 91° East 491 565 35,000  Level Salt Center
Sun 17:46:16 45.7981 -113.0372 91° East 493 567 35,000  Level Salt Center
Sun 17:47:18 45.7961 -112.8417 91° East 492 566 35,000 -48 Level Salt Center
Sun 17:48:20 45.7925 -112.6467 91° East 491 565 34,900  Descending Salt Center
Sun 17:49:21 45.7883 -112.4175 91° East 482 555 35,000 49 Climbing Salt Center
Sun 17:50:23 45.7856 -112.2228 91° East 487 560 35,000  Level Salt Center
Sun 17:51:24 45.7814 -112.0311 92° East 484 557 35,000  Level Salt Center
Sun 17:52:26 45.7767 -111.8403 92° East 483 556 35,000  Level Salt Center
Sun 17:53:27 45.7719 -111.6492 92° East 482 555 35,000  Level Salt Center
Sun 17:54:29 45.7669 -111.4583 92° East 481 554 35,000  Level Salt Center
Sun 17:55:30 45.7611 -111.2694 92° East 480 552 35,000  Level Salt Center
Sun 17:56:32 45.7550 -111.0497 92° East 488 562 35,000  Level Salt Center
Sun 17:57:34 45.7492 -110.8603 92° East 483 556 35,000  Level Salt Center
Sun 17:58:35 45.7433 -110.6725 92° East 475 547 35,000  Level Salt Center
Sun 17:59:37 45.7369 -110.4869 93° East 473 544 35,000  Level Salt Center
Sun 18:00:38 45.7292 -110.2761 93° East 474 545 35,000  Level Salt Center
Sun 18:01:40 45.7219 -110.0928 93° East 480 552 35,000  Level Salt Center
Sun 18:02:41 45.7136 -109.8819 93° East 477 549 35,000  Level Salt Center
Sun 18:03:43 45.7061 -109.6997 93° East 475 547 35,000 -49 Level Salt Center
Sun 18:04:44 45.6983 -109.5197 93° East 472 543 34,900  Descending Salt Center
Sun 18:05:45 45.6881 -109.3106 94° East 474 545 35,000  Climbing Salt Center
Sun 18:06:47 45.6794 -109.1297 94° East 474 545 34,900  Descending Salt Center
Sun 18:07:48 45.6683 -108.9200 94° East 474 545 35,000 98 Climbing Salt Center
Sun 18:08:50 45.6592 -108.7378 94° East 480 552 35,100 537 Climbing Salt Center
Sun 18:09:51 45.6489 -108.5561 95° East 478 550 36,100 934 Climbing Salt Center
Sun 18:10:52 45.6403 -108.3494 93° East 467 537 37,000 439 Climbing Salt Center
Sun 18:11:54 45.6292 -108.1708 95° East 469 540 37,000  Level Salt Center
Sun 18:12:55 45.6192 -107.9947 95° East 465 535 37,000  Level Salt Center
Sun 18:13:57 45.6072 -107.7864 95° East 469 540 37,000  Level Salt Center
Sun 18:14:58 45.5967 -107.6083 95° East 468 539 37,000  Level Salt Center
Sun 18:15:59 45.5831 -107.3997 95° East 470 541 37,000  Level Salt Center
Sun 18:17:01 45.5719 -107.2228 95° East 467 537 37,000  Level Salt Center
Sun 18:18:02 45.5589 -107.0425 96° East 474 545 37,000  Level Salt Center
Sun 18:19:04 45.5444 -106.8358 96° East 471 542 37,000  Level Salt Center
Sun 18:20:05 45.5356 -106.6628 94° East 463 533 37,000  Level Salt Center
Sun 18:21:06 45.5228 -106.4903 96° East 459 528 37,000 -49 Level Salt Center
Sun 18:22:08 45.5075 -106.2869 96° East 460 529 36,900  Descending Salt Center
Sun 18:23:09 45.4958 -106.1122 95° East 462 532 37,000 49 Climbing Salt Center
Sun 18:24:10 45.4797 -105.9064 96° East 468 539 37,000  Level Salt Center
Sun 18:25:12 45.4650 -105.7289 97° East 471 542 37,000  Level Salt Center
Sun 18:26:13 45.4511 -105.5508 96° East 474 545 37,000  Level Salt Center
Sun 18:27:15 45.4344 -105.3444 96° East 471 542 37,000  Level Salt Center
Sun 18:28:16 45.4208 -105.1656 96° East 474 545 37,000  Level Salt Center
Sun 18:29:17 45.4022 -104.9564 97° East 475 547 37,000  Level Salt Center
Sun 18:30:19 45.3869 -104.7806 97° East 471 542 37,000 -49 Level Salt Center
Sun 18:31:20 45.3725 -104.6078 97° East 464 534 36,900 -49 Descending Salt Center
Sun 18:32:22 45.3547 -104.4208 98° East 463 533 36,900  Level Salt Center
Sun 18:33:23 45.3392 -104.2414 97° East 461 531 36,900  Level Salt Center
Sun 18:34:24 45.3219 -104.0594 98° East 465 535 36,900  Level Salt Center
Sun 18:35:26 45.3042 -103.8775 98° East 466 536 36,900  Level Salt Center
Sun 18:36:27 45.2839 -103.6597 97° East 465 535 36,900  Level Salt Center
Sun 18:37:29 45.2664 -103.4772 98° East 467 537 36,900  Level Salt Center
Sun 18:38:30 45.2481 -103.2972 98° East 465 535 36,900  Level Salt Center
Sun 18:39:57 45.2214 -103.0375 98° East 466 536 36,900 40 Level Minneapolis Center
Sun 18:40:59 45.2031 -102.8550 98° East 468 539 37,000 48 Climbing Minneapolis Center
Sun 18:42:01 45.1833 -102.6714 99° East 470 541 37,000  Level Minneapolis Center
Sun 18:43:03 45.1642 -102.4889 98° East 471 542 37,000  Level Minneapolis Center
Sun 18:44:05 45.1411 -102.2725 99° East 466 536 37,000  Level Minneapolis Center
Sun 18:45:07 45.1203 -102.0919 99° East 465 535 37,000  Level Minneapolis Center
Sun 18:46:08 45.0992 -101.9097 99° East 468 539 37,000  Level Minneapolis Center
Sun 18:47:10 45.0781 -101.7294 99° East 468 539 37,000  Level Minneapolis Center
Sun 18:48:12 45.0342 -101.5500 109° East 479 551 37,000  Level Minneapolis Center
Sun 18:49:14 44.9878 -101.3736 110° East 480 552 37,000  Level Minneapolis Center
Sun 18:50:16 44.9400 -101.1969 111° Southeast 482 555 37,000 -48 Level Minneapolis Center
Sun 18:51:18 44.8853 -100.9878 110° East 479 551 36,900  Descending Minneapolis Center
Sun 18:52:20 44.8378 -100.8131 111° Southeast 478 550 37,000 48 Climbing Minneapolis Center
Sun 18:53:22 44.7889 -100.6383 111° Southeast 481 554 37,000  Level Minneapolis Center
Sun 18:54:24 44.7414 -100.4636 111° Southeast 482 555 37,000  Level Minneapolis Center
Sun 18:55:26 44.6939 -100.2906 111° Southeast 480 552 37,000  Level Minneapolis Center
Sun 18:56:28 44.6356 -100.0836 112° Southeast 480 552 37,000  Level Minneapolis Center
Sun 18:57:30 44.5869 -99.9114 112° Southeast 479 551 37,000  Level Minneapolis Center
Sun 18:58:32 44.5392 -99.7400 111° Southeast 478 550 37,000  Level Minneapolis Center
Sun 18:59:34 44.4900 -99.5667 112° Southeast 480 552 37,000  Level Minneapolis Center
Sun 19:00:36 44.4408 -99.3947 112° Southeast 479 551 37,000  Level Minneapolis Center
Sun 19:01:38 44.3822 -99.1875 112° Southeast 478 550 37,000  Level Minneapolis Center
Sun 19:02:40 44.3306 -99.0156 113° Southeast 481 554 37,000  Level Minneapolis Center
Sun 19:03:42 44.2814 -98.8414 111° Southeast 483 556 37,000  Level Minneapolis Center
Sun 19:04:44 44.2297 -98.6686 113° Southeast 484 557 37,000  Level Minneapolis Center
Sun 19:05:46 44.1789 -98.5003 113° Southeast 481 554 37,000  Level Minneapolis Center
Sun 19:06:48 44.1278 -98.3283 112° Southeast 483 556 37,000  Level Minneapolis Center
Sun 19:07:50 44.0653 -98.1239 113° Southeast 480 552 37,000  Level Minneapolis Center
Sun 19:08:51 44.0142 -97.9525 112° Southeast 481 554 37,000  Level Minneapolis Center
Sun 19:09:53 43.9633 -97.7842 113° Southeast 477 549 37,000  Level Minneapolis Center
Sun 19:10:55 43.9106 -97.6161 114° Southeast 478 550 37,000  Level Minneapolis Center
Sun 19:11:57 43.8594 -97.4464 113° Southeast 479 551 37,000  Level Minneapolis Center
Sun 19:12:59 43.8064 -97.2786 114° Southeast 478 550 37,000  Level Minneapolis Center
Sun 19:14:01 43.7436 -97.0781 113° Southeast 476 548 37,000  Level Minneapolis Center
Sun 19:15:02 43.7175 -96.9081 102° East 458 527 37,000  Level Minneapolis Center
Sun 19:16:04 43.6981 -96.7408 99° East 446 513 37,000  Level Minneapolis Center
Sun 19:17:06 43.6786 -96.5736 99° East 444 511 37,000  Level Minneapolis Center
Sun 19:18:07 43.6589 -96.4064 99° East 445 512 37,000  Level Minneapolis Center
Sun 19:19:09 43.6381 -96.2392 100° East 446 513 37,000  Level Minneapolis Center
Sun 19:20:11 43.6136 -96.0378 99° East 447 514 37,000  Level Minneapolis Center
Sun 19:21:12 43.5931 -95.8719 100° East 444 511 37,000  Level Minneapolis Center
Sun 19:22:14 43.5731 -95.7092 100° East 438 504 37,000  Level Minneapolis Center
Sun 19:23:16 43.5519 -95.5436 100° East 439 505 37,000  Level Minneapolis Center
Sun 19:24:17 43.5314 -95.3814 100° East 435 501 37,000  Level Minneapolis Center
Sun 19:25:19 43.5100 -95.2169 100° East 438 504 37,000  Level Minneapolis Center
Sun 19:26:20 43.4831 -95.0192 101° East 439 505 37,000  Level Minneapolis Center
Sun 19:27:22 43.4617 -94.8561 100° East 437 503 37,000  Level Minneapolis Center
Sun 19:28:24 43.4394 -94.6917 100° East 438 504 37,000  Level Minneapolis Center
Sun 19:29:25 43.4169 -94.5289 101° East 436 502 37,000 -49 Level Minneapolis Center
Sun 19:30:27 43.3942 -94.3656 101° East 437 503 36,900  Descending Minneapolis Center
Sun 19:31:28 43.3703 -94.1942 101° East 438 504 37,000 49 Climbing Minneapolis Center
Sun 19:32:30 43.3447 -94.0289 102° East 443 510 37,000  Level Minneapolis Center
Sun 19:33:31 43.3217 -93.8656 101° East 443 510 37,000  Level Minneapolis Center
Sun 19:34:33 43.2969 -93.7014 102° East 442 509 37,000  Level Minneapolis Center
Sun 19:35:34 43.2706 -93.5042 100° East 441 507 37,000  Level Minneapolis Center
Sun 19:36:36 43.2461 -93.3375 101° East 445 512 37,000  Level Minneapolis Center
Sun 19:37:37 43.2194 -93.1697 102° East 450 518 37,000  Level Minneapolis Center
Sun 19:38:39 43.1956 -92.9994 101° East 455 524 37,000  Level Minneapolis Center
Sun 19:39:41 43.1694 -92.8278 102° East 461 531 37,000  Level Minneapolis Center
Sun 19:40:42 43.1425 -92.6531 102° East 469 540 37,000 -195 Level Minneapolis Center
Sun 19:41:44 43.1167 -92.4797 101° East 471 542 36,600 -780 Descending Minneapolis Center
Sun 19:42:45 43.0844 -92.2789 102° East 456 525 35,400 -1,073 Descending Minneapolis Center
Sun 19:43:47 43.0581 -92.1092 102° East 459 528 34,400 -1,854 Descending Minneapolis Center
Sun 19:44:48 43.0306 -91.9389 102° East 459 528 31,600 -1,707 Descending Minneapolis Center
Sun 19:45:50 43.0031 -91.7639 102° East 464 534 30,900 -634 Descending Minneapolis Center
Sun 19:46:51 42.9756 -91.5847 102° East 473 544 30,300 -585 Descending Minneapolis Center
Sun 19:47:53 42.9467 -91.4069 102° East 475 547 29,700 -532 Descending Minneapolis Center
Sun 19:48:55 42.9178 -91.2297 102° East 476 548 29,200 -341 Descending Minneapolis Center
Sun 19:49:56 42.8892 -91.0486 102° East 485 558 29,000 -122 Descending Minneapolis Center
Sun 19:50:33 42.8722 -90.9419 102° East 489 563 29,000  Level Chicago Center
Sun 19:51:35 42.8364 -90.7242 103° East 493 567 29,000  Level Chicago Center
Sun 19:52:37 42.8053 -90.5425 103° East 496 571 29,000  Level Chicago Center
Sun 19:53:39 42.7747 -90.3594 103° East 498 573 29,000 -290 Level Chicago Center
Sun 19:54:41 42.7425 -90.1761 103° East 500 575 28,400 -1,355 Descending Chicago Center
Sun 19:55:43 42.7122 -89.9928 103° East 501 577 26,200 -2,468 Descending Chicago Center
Sun 19:56:45 42.6803 -89.8008 103° East 482 555 23,300 -2,419 Descending Chicago Center
Sun 19:57:47 42.6444 -89.6011 104° East 470 541 21,200 -1,887 Descending Chicago Center
Sun 19:58:49 42.6036 -89.4364 109° East 464 534 19,400 -1,887 Descending Chicago Center
Sun 19:59:51 42.5658 -89.2781 108° East 450 518 17,300 -2,064 Descending Chicago Center
Sun 20:00:54 42.5292 -89.1267 108° East 428 493 15,100 -1,776 Descending Chicago Center
Sun 20:01:56 42.4939 -88.9814 108° East 411 473 13,600 -1,452 Descending Chicago Center
Sun 20:02:58 42.4528 -88.8169 109° East 397 457 12,100 -1,210 Descending Chicago Center
Sun 20:04:00 42.4186 -88.6781 108° East 391 450 11,100 -1,016 Descending Chicago Center
Sun 20:05:02 42.3867 -88.5475 108° East 368 423 10,000 -1,016 Descending Chicago Center
Sun 20:06:04 42.3425 -88.4539 123° Southeast 318 366 9,000 -484 Descending Chicago Center
Sun 20:07:06 42.2744 -88.4281 164° South 281 323 9,000 -484 Level Chicago Center
Sun 20:08:08 42.1939 -88.4139 173° South 246 283 8,000 -726 Descending Chicago Center
Sun 20:09:10 42.1358 -88.4064 175° South 217 250 7,500 -774 Descending Chicago Center
Sun 20:10:12 42.0828 -88.4008 176° South 196 226 6,400 -726 Descending Chicago Center
Sun 20:11:14 42.0300 -88.3883 170° South 195 224 6,000 -339 Descending Chicago Center
Sun 20:12:16 41.9794 -88.3708 166° South 193 222 5,700 -387 Descending Chicago Center
Sun 20:13:18 41.9672 -88.2828 101° East 206 237 5,200 -435 Descending Chicago Center
Sun 20:14:20 41.9672 -88.2114 90° East 194 223 4,800 -726 Descending Chicago Center
Sun 20:15:22 41.9678 -88.1383 89° East 195 224 3,700 -1,095 Descending Chicago Center
Sun 20:16:26 41.9667 -88.0500 91° East 178 205 2,500 -1,016 Descending Chicago TRACON
Sun 20:17:26 41.9667 -88.0000 90° East 152 175 1,600 -800 Descending Chicago TRACON
Sun 20:18:26 41.9667 -87.9500 90° East 135 155 900 -700 Descending Chicago TRACON

Login

Don't have an account? Register now (free) for customized features, flight alerts, and more!